sensor_id;sensor_type;location;lat;lon;timestamp;pressure;altitude;pressure_sealevel;temperature;humidity
20077;BME280;12348;42.710;23.378;2023-04-06T00:00:38;94927.19;;;-0.30;100.00
20077;BME280;12348;42.710;23.378;2023-04-06T00:03:05;94922.28;;;-0.14;100.00
20077;BME280;12348;42.710;23.378;2023-04-06T00:05:32;94917.00;;;-0.03;100.00
20077;BME280;12348;42.710;23.378;2023-04-06T00:07:59;94917.09;;;-0.09;100.00
20077;BME280;12348;42.710;23.378;2023-04-06T00:10:26;94916.19;;;-0.15;100.00
20077;BME280;12348;42.710;23.378;2023-04-06T00:12:53;94914.09;;;-0.13;100.00
20077;BME280;12348;42.710;23.378;2023-04-06T00:15:20;94908.25;;;-0.15;100.00
20077;BME280;12348;42.710;23.378;2023-04-06T00:17:48;94909.50;;;-0.17;100.00
20077;BME280;12348;42.710;23.378;2023-04-06T00:20:16;94895.22;;;-0.16;100.00
20077;BME280;12348;42.710;23.378;2023-04-06T00:22:43;94887.97;;;-0.21;100.00
20077;BME280;12348;42.710;23.378;2023-04-06T00:25:11;94891.66;;;-0.22;100.00
20077;BME280;12348;42.710;23.378;2023-04-06T00:27:38;94883.94;;;-0.23;100.00
20077;BME280;12348;42.710;23.378;2023-04-06T00:30:06;94880.84;;;-0.20;100.00
20077;BME280;12348;42.710;23.378;2023-04-06T00:32:34;94883.75;;;-0.10;100.00
20077;BME280;12348;42.710;23.378;2023-04-06T00:35:03;94876.25;;;-0.02;100.00
20077;BME280;12348;42.710;23.378;2023-04-06T00:37:30;94880.16;;;-0.04;100.00
20077;BME280;12348;42.710;23.378;2023-04-06T00:39:57;94878.56;;;-0.05;100.00
20077;BME280;12348;42.710;23.378;2023-04-06T00:42:24;94875.22;;;-0.01;100.00
20077;BME280;12348;42.710;23.378;2023-04-06T00:44:52;94879.25;;;0.02;100.00
20077;BME280;12348;42.710;23.378;2023-04-06T00:47:21;94871.91;;;0.04;100.00
20077;BME280;12348;42.710;23.378;2023-04-06T00:49:48;94875.47;;;0.10;100.00
20077;BME280;12348;42.710;23.378;2023-04-06T00:52:17;94869.47;;;0.14;100.00
20077;BME280;12348;42.710;23.378;2023-04-06T00:54:44;94868.44;;;0.15;100.00
20077;BME280;12348;42.710;23.378;2023-04-06T00:57:11;94863.16;;;0.15;100.00
20077;BME280;12348;42.710;23.378;2023-04-06T00:59:38;94860.94;;;0.24;100.00
20077;BME280;12348;42.710;23.378;2023-04-06T01:02:05;94872.22;;;0.43;100.00
20077;BME280;12348;42.710;23.378;2023-04-06T01:04:32;94867.50;;;0.45;100.00
20077;BME280;12348;42.710;23.378;2023-04-06T01:06:59;94860.81;;;0.42;100.00
20077;BME280;12348;42.710;23.378;2023-04-06T01:09:28;94853.59;;;0.38;100.00
20077;BME280;12348;42.710;23.378;2023-04-06T01:11:55;94857.59;;;0.29;100.00
20077;BME280;12348;42.710;23.378;2023-04-06T01:14:23;94860.16;;;0.23;100.00
20077;BME280;12348;42.710;23.378;2023-04-06T01:16:50;94868.78;;;0.19;100.00
20077;BME280;12348;42.710;23.378;2023-04-06T01:19:18;94863.16;;;0.15;100.00
20077;BME280;12348;42.710;23.378;2023-04-06T01:21:46;94857.50;;;0.12;100.00
20077;BME280;12348;42.710;23.378;2023-04-06T01:24:16;94858.06;;;0.14;100.00
20077;BME280;12348;42.710;23.378;2023-04-06T01:26:43;94850.00;;;0.32;100.00
20077;BME280;12348;42.710;23.378;2023-04-06T01:29:11;94845.97;;;0.30;100.00
20077;BME280;12348;42.710;23.378;2023-04-06T01:31:38;94841.38;;;0.25;100.00
20077;BME280;12348;42.710;23.378;2023-04-06T01:34:05;94837.13;;;0.24;100.00
20077;BME280;12348;42.710;23.378;2023-04-06T01:36:32;94836.31;;;0.23;100.00
20077;BME280;12348;42.710;23.378;2023-04-06T01:38:59;94831.84;;;0.24;100.00
20077;BME280;12348;42.710;23.378;2023-04-06T01:41:27;94835.03;;;0.26;100.00
20077;BME280;12348;42.710;23.378;2023-04-06T01:43:54;94832.63;;;0.24;100.00
20077;BME280;12348;42.710;23.378;2023-04-06T01:46:21;94834.47;;;0.24;100.00
20077;BME280;12348;42.710;23.378;2023-04-06T01:48:48;94830.78;;;0.25;100.00
20077;BME280;12348;42.710;23.378;2023-04-06T01:51:15;94834.03;;;0.27;100.00
20077;BME280;12348;42.710;23.378;2023-04-06T01:53:41;94823.31;;;0.34;100.00
20077;BME280;12348;42.710;23.378;2023-04-06T01:56:08;94821.13;;;0.31;100.00
20077;BME280;12348;42.710;23.378;2023-04-06T01:58:36;94817.69;;;0.30;100.00
20077;BME280;12348;42.710;23.378;2023-04-06T02:01:03;94821.34;;;0.29;100.00
20077;BME280;12348;42.710;23.378;2023-04-06T02:03:30;94814.78;;;0.32;100.00
20077;BME280;12348;42.710;23.378;2023-04-06T02:05:57;94821.59;;;0.28;100.00
20077;BME280;12348;42.710;23.378;2023-04-06T02:08:24;94819.75;;;0.28;100.00
20077;BME280;12348;42.710;23.378;2023-04-06T02:10:51;94812.50;;;0.23;100.00
20077;BME280;12348;42.710;23.378;2023-04-06T02:13:18;94812.03;;;0.27;100.00
20077;BME280;12348;42.710;23.378;2023-04-06T02:15:46;94815.25;;;0.29;100.00
20077;BME280;12348;42.710;23.378;2023-04-06T02:18:13;94815.81;;;0.31;100.00
20077;BME280;12348;42.710;23.378;2023-04-06T02:20:41;94815.69;;;0.37;100.00
20077;BME280;12348;42.710;23.378;2023-04-06T02:23:08;94817.19;;;0.45;100.00
20077;BME280;12348;42.710;23.378;2023-04-06T02:25:35;94811.78;;;0.40;100.00
20077;BME280;12348;42.710;23.378;2023-04-06T02:28:02;94816.84;;;0.30;100.00
20077;BME280;12348;42.710;23.378;2023-04-06T02:30:29;94811.34;;;0.31;100.00
20077;BME280;12348;42.710;23.378;2023-04-06T02:32:59;94822.13;;;0.30;100.00
20077;BME280;12348;42.710;23.378;2023-04-06T02:35:27;94819.03;;;0.33;100.00
20077;BME280;12348;42.710;23.378;2023-04-06T02:37:54;94811.09;;;0.33;100.00
20077;BME280;12348;42.710;23.378;2023-04-06T02:40:21;94807.31;;;0.29;100.00
20077;BME280;12348;42.710;23.378;2023-04-06T02:42:48;94805.91;;;0.26;100.00
20077;BME280;12348;42.710;23.378;2023-04-06T02:45:15;94813.19;;;0.31;100.00
20077;BME280;12348;42.710;23.378;2023-04-06T02:47:42;94813.84;;;0.26;100.00
20077;BME280;12348;42.710;23.378;2023-04-06T02:50:10;94817.34;;;0.27;100.00
20077;BME280;12348;42.710;23.378;2023-04-06T02:52:37;94818.69;;;0.29;100.00
20077;BME280;12348;42.710;23.378;2023-04-06T02:55:05;94822.97;;;0.30;100.00
20077;BME280;12348;42.710;23.378;2023-04-06T02:57:33;94820.63;;;0.45;100.00
20077;BME280;12348;42.710;23.378;2023-04-06T03:00:00;94813.13;;;0.54;100.00
20077;BME280;12348;42.710;23.378;2023-04-06T03:02:26;94809.66;;;0.54;100.00
20077;BME280;12348;42.710;23.378;2023-04-06T03:04:53;94810.84;;;0.46;100.00
20077;BME280;12348;42.710;23.378;2023-04-06T03:07:22;94822.56;;;0.50;100.00
20077;BME280;12348;42.710;23.378;2023-04-06T03:09:49;94815.34;;;0.45;100.00
20077;BME280;12348;42.710;23.378;2023-04-06T03:12:16;94821.91;;;0.43;100.00
20077;BME280;12348;42.710;23.378;2023-04-06T03:14:42;94815.47;;;0.39;100.00
20077;BME280;12348;42.710;23.378;2023-04-06T03:17:09;94818.47;;;0.31;100.00
20077;BME280;12348;42.710;23.378;2023-04-06T03:19:37;94809.25;;;0.33;100.00
20077;BME280;12348;42.710;23.378;2023-04-06T03:22:05;94806.59;;;0.33;100.00
20077;BME280;12348;42.710;23.378;2023-04-06T03:24:33;94809.50;;;0.32;100.00
20077;BME280;12348;42.710;23.378;2023-04-06T03:27:01;94813.53;;;0.34;100.00
20077;BME280;12348;42.710;23.378;2023-04-06T03:29:28;94816.16;;;0.34;100.00
20077;BME280;12348;42.710;23.378;2023-04-06T03:31:55;94802.78;;;0.41;100.00
20077;BME280;12348;42.710;23.378;2023-04-06T03:34:22;94807.72;;;0.49;100.00
20077;BME280;12348;42.710;23.378;2023-04-06T03:36:49;94815.19;;;0.52;100.00
20077;BME280;12348;42.710;23.378;2023-04-06T03:39:16;94809.66;;;0.54;100.00
20077;BME280;12348;42.710;23.378;2023-04-06T03:41:44;94802.28;;;0.56;100.00
20077;BME280;12348;42.710;23.378;2023-04-06T03:44:11;94798.38;;;0.58;100.00
20077;BME280;12348;42.710;23.378;2023-04-06T03:46:38;94790.41;;;0.58;100.00
20077;BME280;12348;42.710;23.378;2023-04-06T03:49:05;94805.25;;;0.59;100.00
20077;BME280;12348;42.710;23.378;2023-04-06T03:51:32;94814.34;;;0.63;100.00
20077;BME280;12348;42.710;23.378;2023-04-06T03:53:59;94804.78;;;0.62;100.00
20077;BME280;12348;42.710;23.378;2023-04-06T03:56:26;94811.06;;;0.56;100.00
20077;BME280;12348;42.710;23.378;2023-04-06T03:58:54;94813.69;;;0.56;100.00
20077;BME280;12348;42.710;23.378;2023-04-06T04:01:21;94819.47;;;0.53;100.00
20077;BME280;12348;42.710;23.378;2023-04-06T04:03:48;94808.97;;;0.58;100.00
20077;BME280;12348;42.710;23.378;2023-04-06T04:06:15;94817.34;;;0.67;100.00
20077;BME280;12348;42.710;23.378;2023-04-06T04:08:41;94821.69;;;0.73;100.00
20077;BME280;12348;42.710;23.378;2023-04-06T04:11:08;94814.47;;;0.68;100.00
20077;BME280;12348;42.710;23.378;2023-04-06T04:13:35;94812.88;;;0.67;100.00
20077;BME280;12348;42.710;23.378;2023-04-06T04:16:04;94805.81;;;0.73;100.00
20077;BME280;12348;42.710;23.378;2023-04-06T04:18:31;94810.22;;;0.67;100.00
20077;BME280;12348;42.710;23.378;2023-04-06T04:20:58;94804.09;;;0.67;100.00
20077;BME280;12348;42.710;23.378;2023-04-06T04:23:25;94815.19;;;0.64;100.00
20077;BME280;12348;42.710;23.378;2023-04-06T04:25:52;94805.66;;;0.80;100.00
20077;BME280;12348;42.710;23.378;2023-04-06T04:28:19;94810.91;;;0.91;100.00
20077;BME280;12348;42.710;23.378;2023-04-06T04:30:46;94811.78;;;0.80;100.00
20077;BME280;12348;42.710;23.378;2023-04-06T04:33:14;94815.34;;;0.74;100.00
20077;BME280;12348;42.710;23.378;2023-04-06T04:35:41;94813.19;;;0.71;100.00
20077;BME280;12348;42.710;23.378;2023-04-06T04:38:08;94816.41;;;0.73;100.00
20077;BME280;12348;42.710;23.378;2023-04-06T04:40:35;94812.66;;;0.86;100.00
20077;BME280;12348;42.710;23.378;2023-04-06T04:43:02;94819.19;;;0.95;100.00
20077;BME280;12348;42.710;23.378;2023-04-06T04:45:29;94814.84;;;0.89;100.00
20077;BME280;12348;42.710;23.378;2023-04-06T04:47:55;94813.75;;;1.02;100.00
20077;BME280;12348;42.710;23.378;2023-04-06T04:50:25;94815.22;;;1.09;100.00
20077;BME280;12348;42.710;23.378;2023-04-06T04:52:53;94813.47;;;1.15;100.00
20077;BME280;12348;42.710;23.378;2023-04-06T04:55:19;94813.59;;;1.08;100.00
20077;BME280;12348;42.710;23.378;2023-04-06T04:57:46;94809.06;;;1.20;100.00
20077;BME280;12348;42.710;23.378;2023-04-06T05:00:14;94805.16;;;1.11;100.00
20077;BME280;12348;42.710;23.378;2023-04-06T05:02:41;94804.97;;;1.30;100.00
20077;BME280;12348;42.710;23.378;2023-04-06T05:05:08;94809.06;;;1.37;100.00
20077;BME280;12348;42.710;23.378;2023-04-06T05:07:36;94802.88;;;1.49;100.00
20077;BME280;12348;42.710;23.378;2023-04-06T05:10:04;94803.63;;;1.61;100.00
20077;BME280;12348;42.710;23.378;2023-04-06T05:12:31;94799.44;;;1.65;100.00
20077;BME280;12348;42.710;23.378;2023-04-06T05:14:58;94794.53;;;1.57;100.00
20077;BME280;12348;42.710;23.378;2023-04-06T05:17:25;94804.19;;;1.46;100.00
20077;BME280;12348;42.710;23.378;2023-04-06T05:19:52;94797.34;;;1.50;100.00
20077;BME280;12348;42.710;23.378;2023-04-06T05:22:19;94788.09;;;1.53;100.00
20077;BME280;12348;42.710;23.378;2023-04-06T05:24:47;94805.31;;;1.50;100.00
20077;BME280;12348;42.710;23.378;2023-04-06T05:27:14;94809.97;;;1.60;100.00
20077;BME280;12348;42.710;23.378;2023-04-06T05:29:41;94809.91;;;1.55;100.00
20077;BME280;12348;42.710;23.378;2023-04-06T05:32:07;94817.06;;;1.54;100.00
20077;BME280;12348;42.710;23.378;2023-04-06T05:34:35;94807.72;;;1.52;100.00
20077;BME280;12348;42.710;23.378;2023-04-06T05:37:03;94814.22;;;1.44;100.00
20077;BME280;12348;42.710;23.378;2023-04-06T05:39:30;94807.78;;;1.57;100.00
20077;BME280;12348;42.710;23.378;2023-04-06T05:42:01;94799.53;;;1.53;100.00
20077;BME280;12348;42.710;23.378;2023-04-06T05:44:28;94804.97;;;1.63;100.00
20077;BME280;12348;42.710;23.378;2023-04-06T05:46:55;94805.88;;;1.69;100.00
20077;BME280;12348;42.710;23.378;2023-04-06T05:49:21;94805.78;;;1.64;100.00
20077;BME280;12348;42.710;23.378;2023-04-06T05:51:49;94794.84;;;1.60;100.00
20077;BME280;12348;42.710;23.378;2023-04-06T05:54:16;94808.03;;;1.55;100.00
20077;BME280;12348;42.710;23.378;2023-04-06T05:56:43;94802.25;;;1.58;100.00
20077;BME280;12348;42.710;23.378;2023-04-06T05:59:11;94802.91;;;1.65;100.00
20077;BME280;12348;42.710;23.378;2023-04-06T06:01:38;94801.66;;;1.90;100.00
20077;BME280;12348;42.710;23.378;2023-04-06T06:04:05;94802.72;;;1.89;100.00
20077;BME280;12348;42.710;23.378;2023-04-06T06:06:32;94794.81;;;1.94;100.00
20077;BME280;12348;42.710;23.378;2023-04-06T06:08:58;94799.94;;;2.17;100.00
20077;BME280;12348;42.710;23.378;2023-04-06T06:11:26;94803.03;;;2.09;100.00
20077;BME280;12348;42.710;23.378;2023-04-06T06:13:53;94799.78;;;2.07;100.00
20077;BME280;12348;42.710;23.378;2023-04-06T06:16:22;94789.38;;;2.23;100.00
20077;BME280;12348;42.710;23.378;2023-04-06T06:18:49;94794.75;;;2.28;100.00
20077;BME280;12348;42.710;23.378;2023-04-06T06:21:16;94790.44;;;2.22;100.00
20077;BME280;12348;42.710;23.378;2023-04-06T06:23:43;94799.22;;;2.44;100.00
20077;BME280;12348;42.710;23.378;2023-04-06T06:26:10;94800.69;;;2.35;100.00
20077;BME280;12348;42.710;23.378;2023-04-06T06:28:37;94806.28;;;2.55;100.00
20077;BME280;12348;42.710;23.378;2023-04-06T06:31:04;94800.81;;;2.45;100.00
20077;BME280;12348;42.710;23.378;2023-04-06T06:33:32;94806.72;;;2.47;100.00
20077;BME280;12348;42.710;23.378;2023-04-06T06:35:59;94801.50;;;2.57;100.00
20077;BME280;12348;42.710;23.378;2023-04-06T06:38:26;94800.34;;;2.48;100.00
20077;BME280;12348;42.710;23.378;2023-04-06T06:40:53;94800.56;;;2.90;100.00
20077;BME280;12348;42.710;23.378;2023-04-06T06:43:20;94806.72;;;2.69;100.00
20077;BME280;12348;42.710;23.378;2023-04-06T06:45:47;94801.59;;;2.24;100.00
20077;BME280;12348;42.710;23.378;2023-04-06T06:48:14;94805.09;;;2.24;100.00
20077;BME280;12348;42.710;23.378;2023-04-06T06:50:43;94808.47;;;2.19;100.00
20077;BME280;12348;42.710;23.378;2023-04-06T06:53:09;94802.22;;;2.31;100.00
20077;BME280;12348;42.710;23.378;2023-04-06T06:55:37;94802.38;;;2.41;100.00
20077;BME280;12348;42.710;23.378;2023-04-06T06:58:04;94802.44;;;2.68;100.00
20077;BME280;12348;42.710;23.378;2023-04-06T07:00:31;94804.91;;;2.53;100.00
20077;BME280;12348;42.710;23.378;2023-04-06T07:02:58;94808.31;;;2.70;100.00
20077;BME280;12348;42.710;23.378;2023-04-06T07:05:25;94801.25;;;2.81;100.00
20077;BME280;12348;42.710;23.378;2023-04-06T07:07:53;94808.31;;;2.92;100.00
20077;BME280;12348;42.710;23.378;2023-04-06T07:10:20;94796.59;;;3.20;100.00
20077;BME280;12348;42.710;23.378;2023-04-06T07:12:48;94810.00;;;3.30;100.00
20077;BME280;12348;42.710;23.378;2023-04-06T07:15:16;94810.41;;;3.44;100.00
20077;BME280;12348;42.710;23.378;2023-04-06T07:17:43;94787.06;;;3.51;100.00
20077;BME280;12348;42.710;23.378;2023-04-06T07:20:11;94798.63;;;3.67;100.00
20077;BME280;12348;42.710;23.378;2023-04-06T07:22:38;94788.69;;;3.95;100.00
20077;BME280;12348;42.710;23.378;2023-04-06T07:25:08;94799.53;;;3.83;100.00
20077;BME280;12348;42.710;23.378;2023-04-06T07:27:34;94793.44;;;4.88;93.81
20077;BME280;12348;42.710;23.378;2023-04-06T07:30:02;94789.94;;;4.72;91.14
20077;BME280;12348;42.710;23.378;2023-04-06T07:32:28;94794.56;;;5.02;90.54
20077;BME280;12348;42.710;23.378;2023-04-06T07:34:56;94794.88;;;5.26;89.93
20077;BME280;12348;42.710;23.378;2023-04-06T07:37:23;94788.28;;;4.66;90.57
20077;BME280;12348;42.710;23.378;2023-04-06T07:39:50;94786.63;;;4.02;93.89
20077;BME280;12348;42.710;23.378;2023-04-06T07:42:18;94778.03;;;4.37;94.42
20077;BME280;12348;42.710;23.378;2023-04-06T07:44:45;94790.06;;;4.45;91.49
20077;BME280;12348;42.710;23.378;2023-04-06T07:47:12;94780.25;;;4.55;89.32
20077;BME280;12348;42.710;23.378;2023-04-06T07:49:39;94785.41;;;4.77;89.49
20077;BME280;12348;42.710;23.378;2023-04-06T07:52:06;94788.91;;;4.88;88.23
20077;BME280;12348;42.710;23.378;2023-04-06T07:54:33;94789.03;;;5.39;86.72
20077;BME280;12348;42.710;23.378;2023-04-06T07:57:00;94785.84;;;5.88;85.11
20077;BME280;12348;42.710;23.378;2023-04-06T07:59:28;94785.16;;;7.67;76.64
20077;BME280;12348;42.710;23.378;2023-04-06T08:01:55;94777.78;;;10.21;66.71
20077;BME280;12348;42.710;23.378;2023-04-06T08:04:22;94782.84;;;11.24;57.75
20077;BME280;12348;42.710;23.378;2023-04-06T08:06:49;94778.19;;;11.52;55.06
20077;BME280;12348;42.710;23.378;2023-04-06T08:09:16;94775.47;;;13.04;50.14
20077;BME280;12348;42.710;23.378;2023-04-06T08:11:43;94779.41;;;12.58;51.36
20077;BME280;12348;42.710;23.378;2023-04-06T08:14:11;94772.16;;;11.05;51.32
20077;BME280;12348;42.710;23.378;2023-04-06T08:16:39;94780.84;;;10.47;52.88
20077;BME280;12348;42.710;23.378;2023-04-06T08:19:06;94778.50;;;9.94;55.87
20077;BME280;12348;42.710;23.378;2023-04-06T08:21:34;94772.78;;;9.44;57.37
20077;BME280;12348;42.710;23.378;2023-04-06T08:24:02;94785.88;;;8.41;60.77
20077;BME280;12348;42.710;23.378;2023-04-06T08:26:29;94788.63;;;8.01;62.07
20077;BME280;12348;42.710;23.378;2023-04-06T08:28:56;94781.59;;;8.11;62.70
20077;BME280;12348;42.710;23.378;2023-04-06T08:31:23;94784.75;;;7.84;63.50
20077;BME280;12348;42.710;23.378;2023-04-06T08:33:53;94786.66;;;7.44;63.77
20077;BME280;12348;42.710;23.378;2023-04-06T08:36:19;94791.97;;;7.88;63.66
20077;BME280;12348;42.710;23.378;2023-04-06T08:38:48;94782.19;;;8.02;62.17
20077;BME280;12348;42.710;23.378;2023-04-06T08:41:16;94789.66;;;7.37;65.92
20077;BME280;12348;42.710;23.378;2023-04-06T08:43:44;94790.41;;;6.93;68.29
20077;BME280;12348;42.710;23.378;2023-04-06T08:46:13;94783.59;;;7.95;67.30
20077;BME280;12348;42.710;23.378;2023-04-06T08:48:41;94789.91;;;9.10;60.66
20077;BME280;12348;42.710;23.378;2023-04-06T08:51:09;94775.84;;;9.75;58.67
20077;BME280;12348;42.710;23.378;2023-04-06T08:53:37;94766.06;;;9.98;56.20
20077;BME280;12348;42.710;23.378;2023-04-06T08:56:04;94773.53;;;10.01;54.46
20077;BME280;12348;42.710;23.378;2023-04-06T08:58:33;94777.25;;;10.52;53.41
20077;BME280;12348;42.710;23.378;2023-04-06T09:01:02;94773.34;;;8.60;57.08
20077;BME280;12348;42.710;23.378;2023-04-06T09:03:33;94779.78;;;8.01;60.15
20077;BME280;12348;42.710;23.378;2023-04-06T09:06:01;94779.25;;;7.70;63.56
20077;BME280;12348;42.710;23.378;2023-04-06T09:08:31;94773.72;;;8.19;61.78
20077;BME280;12348;42.710;23.378;2023-04-06T09:10:57;94767.38;;;8.39;60.61
20077;BME280;12348;42.710;23.378;2023-04-06T09:13:24;94771.06;;;10.18;57.12
20077;BME280;12348;42.710;23.378;2023-04-06T09:15:59;94774.31;;;10.34;54.93
20077;BME280;12348;42.710;23.378;2023-04-06T09:18:29;94768.91;;;10.95;52.79
20077;BME280;12348;42.710;23.378;2023-04-06T09:20:58;94762.88;;;11.11;52.45
20077;BME280;12348;42.710;23.378;2023-04-06T09:23:25;94770.47;;;10.54;51.98
20077;BME280;12348;42.710;23.378;2023-04-06T09:26:05;94759.03;;;9.83;53.11
20077;BME280;12348;42.710;23.378;2023-04-06T09:28:44;94762.38;;;8.99;56.84
20077;BME280;12348;42.710;23.378;2023-04-06T09:31:12;94768.91;;;8.69;59.02
20077;BME280;12348;42.710;23.378;2023-04-06T09:33:40;94756.53;;;9.35;56.36
20077;BME280;12348;42.710;23.378;2023-04-06T09:36:07;94766.41;;;9.40;55.89
20077;BME280;12348;42.710;23.378;2023-04-06T09:38:36;94765.28;;;10.11;54.44
20077;BME280;12348;42.710;23.378;2023-04-06T09:41:07;94767.00;;;11.45;50.67
20077;BME280;12348;42.710;23.378;2023-04-06T09:43:34;94768.63;;;9.70;52.54
20077;BME280;12348;42.710;23.378;2023-04-06T09:46:03;94767.91;;;8.36;56.02
20077;BME280;12348;42.710;23.378;2023-04-06T09:48:33;94749.19;;;8.31;57.82
20077;BME280;12348;42.710;23.378;2023-04-06T09:51:03;94752.47;;;9.38;55.26
20077;BME280;12348;42.710;23.378;2023-04-06T09:53:33;94762.03;;;9.63;54.46
20077;BME280;12348;42.710;23.378;2023-04-06T09:56:03;94765.41;;;10.20;53.61
20077;BME280;12348;42.710;23.378;2023-04-06T09:58:37;94763.91;;;9.81;52.87
20077;BME280;12348;42.710;23.378;2023-04-06T10:01:08;94757.22;;;11.49;50.89
20077;BME280;12348;42.710;23.378;2023-04-06T10:03:42;94757.94;;;11.41;49.27
20077;BME280;12348;42.710;23.378;2023-04-06T10:06:13;94762.13;;;10.83;51.40
20077;BME280;12348;42.710;23.378;2023-04-06T10:08:43;94771.03;;;10.37;51.18
20077;BME280;12348;42.710;23.378;2023-04-06T10:11:12;94758.19;;;10.34;50.87
20077;BME280;12348;42.710;23.378;2023-04-06T10:13:40;94757.38;;;10.34;51.85
20077;BME280;12348;42.710;23.378;2023-04-06T10:16:09;94764.47;;;9.27;53.65
20077;BME280;12348;42.710;23.378;2023-04-06T10:18:39;94755.50;;;10.02;54.58
20077;BME280;12348;42.710;23.378;2023-04-06T10:21:11;94752.09;;;10.29;51.35
20077;BME280;12348;42.710;23.378;2023-04-06T10:23:43;94756.91;;;11.01;49.94
20077;BME280;12348;42.710;23.378;2023-04-06T10:26:14;94748.75;;;10.64;50.53
20077;BME280;12348;42.710;23.378;2023-04-06T10:28:45;94744.66;;;10.53;50.69
20077;BME280;12348;42.710;23.378;2023-04-06T10:31:12;94742.75;;;10.95;49.08
20077;BME280;12348;42.710;23.378;2023-04-06T10:33:40;94744.34;;;10.41;50.99
20077;BME280;12348;42.710;23.378;2023-04-06T10:36:11;94736.16;;;10.60;51.65
20077;BME280;12348;42.710;23.378;2023-04-06T10:38:39;94733.84;;;9.79;50.98
20077;BME280;12348;42.710;23.378;2023-04-06T10:41:07;94739.25;;;10.39;50.32
20077;BME280;12348;42.710;23.378;2023-04-06T10:43:35;94731.97;;;10.40;49.53
20077;BME280;12348;42.710;23.378;2023-04-06T10:46:05;94727.25;;;11.01;49.57
20077;BME280;12348;42.710;23.378;2023-04-06T10:48:39;94739.66;;;10.60;49.64
20077;BME280;12348;42.710;23.378;2023-04-06T10:51:10;94728.19;;;10.82;49.28
20077;BME280;12348;42.710;23.378;2023-04-06T10:53:37;94729.72;;;10.14;50.75
20077;BME280;12348;42.710;23.378;2023-04-06T10:56:09;94730.44;;;10.20;50.95
20077;BME280;12348;42.710;23.378;2023-04-06T10:58:37;94730.47;;;9.87;52.22
20077;BME280;12348;42.710;23.378;2023-04-06T11:01:06;94732.13;;;9.51;52.45
20077;BME280;12348;42.710;23.378;2023-04-06T11:03:43;94722.81;;;9.94;51.09
20077;BME280;12348;42.710;23.378;2023-04-06T11:06:10;94717.63;;;10.44;49.59
20077;BME280;12348;42.710;23.378;2023-04-06T11:08:38;94721.50;;;10.93;49.69
20077;BME280;12348;42.710;23.378;2023-04-06T11:11:06;94713.13;;;10.67;50.51
20077;BME280;12348;42.710;23.378;2023-04-06T11:13:38;94712.16;;;9.57;52.43
20077;BME280;12348;42.710;23.378;2023-04-06T11:16:11;94722.84;;;9.24;53.51
20077;BME280;12348;42.710;23.378;2023-04-06T11:18:45;94726.91;;;9.21;53.87
20077;BME280;12348;42.710;23.378;2023-04-06T11:21:12;94719.28;;;9.29;53.02
20077;BME280;12348;42.710;23.378;2023-04-06T11:23:39;94701.66;;;9.55;52.79
20077;BME280;12348;42.710;23.378;2023-04-06T11:26:10;94724.06;;;9.13;53.77
20077;BME280;12348;42.710;23.378;2023-04-06T11:28:37;94717.56;;;9.00;55.07
20077;BME280;12348;42.710;23.378;2023-04-06T11:31:06;94714.25;;;9.41;53.76
20077;BME280;12348;42.710;23.378;2023-04-06T11:33:37;94715.53;;;8.68;55.41
20077;BME280;12348;42.710;23.378;2023-04-06T11:36:05;94703.88;;;8.78;54.75
20077;BME280;12348;42.710;23.378;2023-04-06T11:38:32;94716.78;;;8.04;57.05
20077;BME280;12348;42.710;23.378;2023-04-06T11:41:01;94713.03;;;8.95;55.63
20077;BME280;12348;42.710;23.378;2023-04-06T11:43:28;94700.63;;;9.37;54.55
20077;BME280;12348;42.710;23.378;2023-04-06T11:46:02;94711.66;;;8.79;54.72
20077;BME280;12348;42.710;23.378;2023-04-06T11:48:31;94706.75;;;8.81;55.63
20077;BME280;12348;42.710;23.378;2023-04-06T11:50:59;94699.31;;;8.78;55.70
20077;BME280;12348;42.710;23.378;2023-04-06T11:53:26;94706.19;;;8.84;55.76
20077;BME280;12348;42.710;23.378;2023-04-06T11:55:54;94703.34;;;8.57;55.36
20077;BME280;12348;42.710;23.378;2023-04-06T11:58:21;94703.91;;;8.96;55.14
20077;BME280;12348;42.710;23.378;2023-04-06T12:00:48;94700.78;;;9.08;54.25
20077;BME280;12348;42.710;23.378;2023-04-06T12:03:15;94698.59;;;8.91;54.58
20077;BME280;12348;42.710;23.378;2023-04-06T12:05:43;94698.75;;;8.57;56.14
20077;BME280;12348;42.710;23.378;2023-04-06T12:08:11;94701.94;;;8.35;56.37
20077;BME280;12348;42.710;23.378;2023-04-06T12:10:37;94683.44;;;8.10;57.19
20077;BME280;12348;42.710;23.378;2023-04-06T12:13:04;94702.81;;;7.77;58.45
20077;BME280;12348;42.710;23.378;2023-04-06T12:15:31;94689.38;;;7.48;59.54
20077;BME280;12348;42.710;23.378;2023-04-06T12:17:58;94696.81;;;7.57;59.37
20077;BME280;12348;42.710;23.378;2023-04-06T12:20:25;94683.16;;;7.58;59.13
20077;BME280;12348;42.710;23.378;2023-04-06T12:22:54;94692.41;;;7.71;59.25
20077;BME280;12348;42.710;23.378;2023-04-06T12:25:22;94692.13;;;7.43;62.65
20077;BME280;12348;42.710;23.378;2023-04-06T12:27:49;94685.94;;;7.43;61.86
20077;BME280;12348;42.710;23.378;2023-04-06T12:30:16;94685.06;;;7.52;61.17
20077;BME280;12348;42.710;23.378;2023-04-06T12:32:43;94683.88;;;7.35;62.44
20077;BME280;12348;42.710;23.378;2023-04-06T12:35:10;94694.59;;;6.95;63.89
20077;BME280;12348;42.710;23.378;2023-04-06T12:37:41;94689.59;;;6.84;63.43
20077;BME280;12348;42.710;23.378;2023-04-06T12:40:10;94696.72;;;6.44;66.38
20077;BME280;12348;42.710;23.378;2023-04-06T12:42:38;94690.47;;;6.64;66.38
20077;BME280;12348;42.710;23.378;2023-04-06T12:45:07;94679.88;;;6.93;64.71
20077;BME280;12348;42.710;23.378;2023-04-06T12:47:35;94677.16;;;6.98;62.37
20077;BME280;12348;42.710;23.378;2023-04-06T12:50:03;94675.75;;;7.11;63.45
20077;BME280;12348;42.710;23.378;2023-04-06T12:52:30;94671.38;;;7.25;65.08
20077;BME280;12348;42.710;23.378;2023-04-06T12:55:00;94669.72;;;7.29;64.65